ANZ104 NZAA-YSSY
Flight info
| Callsign | ANZ104 |
|---|---|
| Flight time | 2h 43m |
| Altitude | 38000 |
| Route | VELMO DCT 38S163E DCT PLUGA DCT RIKNI N774 MARLN |
| Aircraft | B77W/H-SDE1E2E3FGHIJ2J3J4J5M1RWXY/LB1D1 |
Departure
| Time | 2026-04-26 10:53 |
|---|---|
| Airport | Auckland International Airport (NZAA) |
Arrival
| Time | 2026-04-26 13:37 |
|---|---|
| Airport | Sydney Kingsford Smith International Airport (YSSY) |
| Time | Latitude | Longitude | Altitude | Speed | Heading |
|---|---|---|---|---|---|
| 2026-04-26 10:15 | -37.00709 | 174.78309 | 30 ft | 0 kts | 295° |
| 2026-04-26 10:42 | -37.00712 | 174.78316 | 58 ft | 3 kts | 295° |
| 2026-04-26 10:43 | -37.00719 | 174.78336 | 30 ft | 3 kts | 295° |
| 2026-04-26 10:43 | -37.00726 | 174.78357 | 30 ft | 3 kts | 272° |
| 2026-04-26 10:43 | -37.00726 | 174.78359 | 30 ft | 0 kts | 268° |
| 2026-04-26 10:44 | -37.00726 | 174.78362 | 29 ft | 3 kts | 264° |
| 2026-04-26 10:44 | -37.00722 | 174.78381 | 28 ft | 3 kts | 233° |
| 2026-04-26 10:44 | -37.00711 | 174.78395 | 28 ft | 0 kts | 208° |
| 2026-04-26 10:47 | -37.00729 | 174.78386 | 30 ft | 14 kts | 200° |
| 2026-04-26 10:47 | -37.00767 | 174.78376 | 30 ft | 9 kts | 185° |
| 2026-04-26 10:48 | -37.00860 | 174.78369 | 30 ft | 14 kts | 188° |
| 2026-04-26 10:48 | -37.00957 | 174.78365 | 30 ft | 14 kts | 172° |
| 2026-04-26 10:48 | -37.01034 | 174.78428 | 30 ft | 14 kts | 117° |
| 2026-04-26 10:48 | -37.01037 | 174.78548 | 30 ft | 14 kts | 84° |
| 2026-04-26 10:49 | -37.01005 | 174.78666 | 30 ft | 14 kts | 68° |
| 2026-04-26 10:49 | -37.00968 | 174.78782 | 30 ft | 14 kts | 72° |
| 2026-04-26 10:49 | -37.00943 | 174.78872 | 30 ft | 15 kts | 71° |
| 2026-04-26 10:49 | -37.00911 | 174.78990 | 30 ft | 15 kts | 71° |
| 2026-04-26 10:50 | -37.00878 | 174.79109 | 30 ft | 15 kts | 71° |
| 2026-04-26 10:50 | -37.00856 | 174.79190 | 30 ft | 15 kts | 71° |
| 2026-04-26 10:50 | -37.00775 | 174.79486 | 30 ft | 36 kts | 71° |
| 2026-04-26 10:50 | -37.00694 | 174.79778 | 30 ft | 35 kts | 71° |
| 2026-04-26 10:51 | -37.00615 | 174.80062 | 30 ft | 34 kts | 70° |
| 2026-04-26 10:51 | -37.00544 | 174.80398 | 30 ft | 18 kts | 111° |
| 2026-04-26 10:51 | -37.00596 | 174.80490 | 30 ft | 2 kts | 131° |
| 2026-04-26 10:52 | -37.00678 | 174.80521 | 30 ft | 11 kts | 217° |
| 2026-04-26 10:52 | -37.00700 | 174.80458 | 30 ft | 0 kts | 253° |
| 2026-04-26 10:52 | -37.00708 | 174.80425 | 30 ft | 28 kts | 253° |
| 2026-04-26 10:52 | -37.00861 | 174.79846 | 30 ft | 113 kts | 250° |
| 2026-04-26 10:53 | -37.01192 | 174.78664 | 30 ft | 178 kts | 251° |
| 2026-04-26 10:53 | -37.01554 | 174.77220 | 387 ft | 191 kts | 254° |
| 2026-04-26 10:53 | -37.01919 | 174.75584 | 1051 ft | 200 kts | 251° |
| 2026-04-26 10:54 | -37.02873 | 174.72247 | 2661 ft | 206 kts | 248° |
| 2026-04-26 10:54 | -37.03356 | 174.70572 | 3434 ft | 208 kts | 248° |
| 2026-04-26 10:54 | -37.03847 | 174.68855 | 4160 ft | 213 kts | 247° |
| 2026-04-26 10:54 | -37.04351 | 174.67079 | 4884 ft | 220 kts | 246° |
| 2026-04-26 10:55 | -37.04855 | 174.65290 | 5792 ft | 223 kts | 247° |
| 2026-04-26 10:55 | -37.05370 | 174.63449 | 6751 ft | 226 kts | 247° |
| 2026-04-26 10:55 | -37.05895 | 174.61566 | 7617 ft | 232 kts | 248° |
| 2026-04-26 10:55 | -37.06248 | 174.60296 | 8196 ft | 235 kts | 248° |
| 2026-04-26 10:56 | -37.06971 | 174.57677 | 9427 ft | 240 kts | 249° |
| 2026-04-26 10:56 | -37.07521 | 174.55685 | 10273 ft | 247 kts | 249° |
| 2026-04-26 10:56 | -37.08116 | 174.53549 | 10727 ft | 269 kts | 248° |
| 2026-04-26 10:56 | -37.08828 | 174.51337 | 11292 ft | 288 kts | 245° |
| 2026-04-26 10:57 | -37.09673 | 174.48922 | 11621 ft | 319 kts | 244° |
| 2026-04-26 10:57 | -37.10599 | 174.46321 | 12331 ft | 333 kts | 244° |
| 2026-04-26 10:57 | -37.11552 | 174.43638 | 13384 ft | 339 kts | 243° |
| 2026-04-26 10:57 | -37.12513 | 174.40926 | 14439 ft | 344 kts | 243° |
| 2026-04-26 10:58 | -37.13488 | 174.38166 | 15436 ft | 348 kts | 243° |
| 2026-04-26 10:58 | -37.14472 | 174.35370 | 16440 ft | 353 kts | 244° |
| 2026-04-26 10:58 | -37.15470 | 174.32527 | 17439 ft | 359 kts | 244° |
| 2026-04-26 10:58 | -37.16480 | 174.29643 | 18442 ft | 364 kts | 244° |
| 2026-04-26 10:59 | -37.17505 | 174.26708 | 19309 ft | 370 kts | 244° |
| 2026-04-26 10:59 | -37.18540 | 174.23736 | 20225 ft | 374 kts | 244° |
| 2026-04-26 10:59 | -37.19587 | 174.20723 | 21129 ft | 378 kts | 244° |
| 2026-04-26 10:59 | -37.20642 | 174.17684 | 22041 ft | 382 kts | 244° |
| 2026-04-26 11:00 | -37.21711 | 174.14604 | 22910 ft | 388 kts | 244° |
| 2026-04-26 11:00 | -37.22792 | 174.11483 | 23785 ft | 392 kts | 244° |
| 2026-04-26 11:00 | -37.23887 | 174.08319 | 24526 ft | 397 kts | 245° |
| 2026-04-26 11:00 | -37.24988 | 174.05130 | 25297 ft | 399 kts | 245° |
| 2026-04-26 11:01 | -37.26086 | 174.01950 | 26049 ft | 403 kts | 245° |
| 2026-04-26 11:01 | -37.27206 | 173.98702 | 26755 ft | 407 kts | 245° |
| 2026-04-26 11:01 | -37.28333 | 173.95428 | 27464 ft | 411 kts | 245° |
| 2026-04-26 11:01 | -37.29479 | 173.92098 | 28144 ft | 416 kts | 245° |
| 2026-04-26 11:02 | -37.30633 | 173.88741 | 28812 ft | 420 kts | 245° |
| 2026-04-26 11:02 | -37.31798 | 173.85344 | 29459 ft | 425 kts | 245° |
| 2026-04-26 11:02 | -37.32969 | 173.81929 | 30121 ft | 428 kts | 246° |
| 2026-04-26 11:02 | -37.34146 | 173.78492 | 30182 ft | 428 kts | 246° |
| 2026-04-26 11:03 | -37.36499 | 173.71610 | 30194 ft | 428 kts | 246° |
| 2026-04-26 11:03 | -37.38828 | 173.64777 | 30193 ft | 427 kts | 246° |
| 2026-04-26 11:04 | -37.41165 | 173.57908 | 30203 ft | 427 kts | 246° |
| 2026-04-26 11:04 | -37.43500 | 173.51033 | 30190 ft | 427 kts | 246° |
| 2026-04-26 11:05 | -37.45829 | 173.44158 | 30217 ft | 427 kts | 246° |
| 2026-04-26 11:05 | -37.48163 | 173.37252 | 30202 ft | 428 kts | 246° |
| 2026-04-26 11:06 | -37.50100 | 173.31509 | 30207 ft | 429 kts | 246° |
| 2026-04-26 11:06 | -37.52433 | 173.24577 | 30223 ft | 429 kts | 246° |
| 2026-04-26 11:07 | -37.54759 | 173.17651 | 30212 ft | 428 kts | 246° |
| 2026-04-26 11:07 | -37.57070 | 173.10753 | 30206 ft | 426 kts | 246° |
| 2026-04-26 11:08 | -37.59369 | 173.03872 | 30209 ft | 425 kts | 246° |
| 2026-04-26 11:08 | -37.61658 | 172.97005 | 30209 ft | 425 kts | 246° |
| 2026-04-26 11:09 | -37.63932 | 172.90170 | 30208 ft | 425 kts | 246° |
| 2026-04-26 11:09 | -37.66215 | 172.83287 | 30216 ft | 426 kts | 246° |
| 2026-04-26 11:10 | -37.68506 | 172.76368 | 30216 ft | 427 kts | 246° |
| 2026-04-26 11:10 | -37.70790 | 172.69451 | 30216 ft | 427 kts | 246° |
| 2026-04-26 11:11 | -37.73066 | 172.62541 | 30230 ft | 427 kts | 247° |
| 2026-04-26 11:11 | -37.75325 | 172.55672 | 30218 ft | 425 kts | 247° |
| 2026-04-26 11:12 | -37.77582 | 172.48789 | 30217 ft | 423 kts | 247° |
| 2026-04-26 11:12 | -37.79825 | 172.41929 | 30217 ft | 421 kts | 247° |
| 2026-04-26 11:13 | -37.82060 | 172.35083 | 30214 ft | 421 kts | 247° |
| 2026-04-26 11:13 | -37.84296 | 172.28216 | 30220 ft | 422 kts | 247° |
| 2026-04-26 11:14 | -37.86531 | 172.21333 | 30223 ft | 424 kts | 247° |
| 2026-04-26 11:14 | -37.88758 | 172.14456 | 30222 ft | 425 kts | 247° |
| 2026-04-26 11:15 | -37.91003 | 172.07512 | 30227 ft | 426 kts | 247° |
| 2026-04-26 11:15 | -37.93241 | 172.00571 | 30227 ft | 425 kts | 248° |
| 2026-04-26 11:16 | -37.95508 | 171.93525 | 30243 ft | 445 kts | 248° |
| 2026-04-26 11:16 | -37.96683 | 171.89866 | 30239 ft | 461 kts | 248° |
| 2026-04-26 11:16 | -37.97906 | 171.86046 | 30240 ft | 473 kts | 248° |
| 2026-04-26 11:17 | -37.99158 | 171.82134 | 30238 ft | 484 kts | 248° |
| 2026-04-26 11:17 | -38.00433 | 171.78142 | 30239 ft | 493 kts | 248° |
| 2026-04-26 11:17 | -38.03021 | 171.70031 | 30237 ft | 498 kts | 248° |
| 2026-04-26 11:18 | -38.05616 | 171.61879 | 30227 ft | 498 kts | 248° |
| 2026-04-26 11:18 | -38.08204 | 171.53728 | 30237 ft | 499 kts | 248° |
| 2026-04-26 11:19 | -38.10794 | 171.45544 | 30238 ft | 500 kts | 248° |
| 2026-04-26 11:19 | -38.13379 | 171.37342 | 30232 ft | 500 kts | 248° |
| 2026-04-26 11:20 | -38.15505 | 171.30579 | 30236 ft | 499 kts | 248° |
| 2026-04-26 11:20 | -38.18496 | 171.21044 | 30238 ft | 500 kts | 248° |
| 2026-04-26 11:21 | -38.21069 | 171.12814 | 30247 ft | 500 kts | 248° |
| 2026-04-26 11:21 | -38.23641 | 171.04561 | 30249 ft | 501 kts | 248° |
| 2026-04-26 11:22 | -38.26092 | 170.96313 | 30244 ft | 501 kts | 251° |
| 2026-04-26 11:22 | -38.27667 | 170.87799 | 30233 ft | 492 kts | 265° |
| 2026-04-26 11:23 | -38.27131 | 170.79082 | 30252 ft | 491 kts | 276° |
| 2026-04-26 11:23 | -38.26631 | 170.70521 | 30256 ft | 482 kts | 269° |
| 2026-04-26 11:24 | -38.26842 | 170.61818 | 30286 ft | 500 kts | 266° |
| 2026-04-26 11:24 | -38.27073 | 170.52851 | 30262 ft | 508 kts | 268° |
| 2026-04-26 11:25 | -38.27119 | 170.43886 | 30260 ft | 505 kts | 269° |
| 2026-04-26 11:25 | -38.27054 | 170.35030 | 30262 ft | 503 kts | 270° |
| 2026-04-26 11:26 | -38.26968 | 170.26139 | 30266 ft | 502 kts | 270° |
| 2026-04-26 11:26 | -38.26896 | 170.17259 | 30267 ft | 502 kts | 269° |
| 2026-04-26 11:27 | -38.26831 | 170.08381 | 30262 ft | 503 kts | 269° |
| 2026-04-26 11:27 | -38.26763 | 169.99463 | 30277 ft | 504 kts | 270° |
| 2026-04-26 11:28 | -38.26686 | 169.90522 | 30267 ft | 505 kts | 270° |
| 2026-04-26 11:28 | -38.26600 | 169.81583 | 30277 ft | 505 kts | 270° |
| 2026-04-26 11:29 | -38.26506 | 169.72646 | 30276 ft | 505 kts | 270° |
| 2026-04-26 11:29 | -38.26407 | 169.63755 | 30285 ft | 506 kts | 270° |
| 2026-04-26 11:30 | -38.26318 | 169.56253 | 30283 ft | 506 kts | 270° |
| 2026-04-26 11:30 | -38.26186 | 169.45848 | 30284 ft | 506 kts | 270° |
| 2026-04-26 11:31 | -38.26066 | 169.36901 | 30283 ft | 506 kts | 270° |
| 2026-04-26 11:31 | -38.25939 | 169.27932 | 30288 ft | 506 kts | 270° |
| 2026-04-26 11:32 | -38.25805 | 169.18976 | 30288 ft | 507 kts | 270° |
| 2026-04-26 11:32 | -38.25664 | 169.10002 | 30292 ft | 507 kts | 270° |
| 2026-04-26 11:33 | -38.25516 | 169.01031 | 30293 ft | 507 kts | 270° |
| 2026-04-26 11:33 | -38.25362 | 168.92065 | 30298 ft | 506 kts | 270° |
| 2026-04-26 11:34 | -38.25201 | 168.83162 | 30290 ft | 506 kts | 270° |
| 2026-04-26 11:34 | -38.25033 | 168.74198 | 30298 ft | 506 kts | 270° |
| 2026-04-26 11:35 | -38.24859 | 168.65226 | 30288 ft | 507 kts | 270° |
| 2026-04-26 11:35 | -38.24708 | 168.57765 | 30296 ft | 508 kts | 270° |
| 2026-04-26 11:36 | -38.24487 | 168.47247 | 30297 ft | 509 kts | 270° |
| 2026-04-26 11:36 | -38.24291 | 168.38303 | 30300 ft | 509 kts | 270° |
| 2026-04-26 11:37 | -38.24088 | 168.29294 | 30295 ft | 509 kts | 271° |
| 2026-04-26 11:37 | -38.23878 | 168.20297 | 30307 ft | 509 kts | 271° |
| 2026-04-26 11:38 | -38.23661 | 168.11294 | 30304 ft | 509 kts | 271° |
| 2026-04-26 11:38 | -38.23437 | 168.02282 | 30308 ft | 509 kts | 271° |
| 2026-04-26 11:39 | -38.23208 | 167.93331 | 30304 ft | 509 kts | 271° |
| 2026-04-26 11:39 | -38.22970 | 167.84330 | 30312 ft | 509 kts | 271° |
| 2026-04-26 11:40 | -38.22725 | 167.75323 | 30309 ft | 510 kts | 271° |
| 2026-04-26 11:40 | -38.22474 | 167.66317 | 30314 ft | 510 kts | 271° |
| 2026-04-26 11:42 | -38.21398 | 167.30274 | 30316 ft | 509 kts | 271° |
| 2026-04-26 11:43 | -38.21112 | 167.21286 | 30317 ft | 509 kts | 271° |
| 2026-04-26 11:43 | -38.20820 | 167.12294 | 30323 ft | 509 kts | 271° |
| 2026-04-26 11:44 | -38.20521 | 167.03296 | 30318 ft | 509 kts | 271° |
| 2026-04-26 11:44 | -38.20216 | 166.94340 | 30323 ft | 510 kts | 271° |
| 2026-04-26 11:45 | -38.19902 | 166.85337 | 30319 ft | 510 kts | 271° |
| 2026-04-26 11:45 | -38.19581 | 166.76308 | 30331 ft | 510 kts | 271° |
| 2026-04-26 11:46 | -38.19253 | 166.67284 | 30323 ft | 511 kts | 271° |
| 2026-04-26 11:46 | -38.18918 | 166.58259 | 30326 ft | 511 kts | 272° |
| 2026-04-26 11:47 | -38.18578 | 166.49296 | 30325 ft | 511 kts | 272° |
| 2026-04-26 11:47 | -38.18230 | 166.40278 | 30329 ft | 511 kts | 272° |
| 2026-04-26 11:48 | -38.17874 | 166.31251 | 30331 ft | 511 kts | 272° |
| 2026-04-26 11:48 | -38.17524 | 166.22550 | 30330 ft | 511 kts | 272° |
| 2026-04-26 11:49 | -38.17154 | 166.13515 | 30328 ft | 511 kts | 272° |
| 2026-04-26 11:49 | -38.16778 | 166.04499 | 30324 ft | 511 kts | 272° |
| 2026-04-26 11:50 | -38.16395 | 165.95485 | 30349 ft | 511 kts | 272° |
| 2026-04-26 11:50 | -38.16005 | 165.86459 | 30365 ft | 510 kts | 272° |
| 2026-04-26 11:51 | -38.15611 | 165.77502 | 30325 ft | 511 kts | 272° |
| 2026-04-26 11:51 | -38.15208 | 165.68491 | 30324 ft | 511 kts | 272° |
| 2026-04-26 11:52 | -38.14866 | 165.60986 | 30328 ft | 510 kts | 272° |
| 2026-04-26 11:52 | -38.14450 | 165.51977 | 30342 ft | 510 kts | 272° |
| 2026-04-26 11:53 | -38.14027 | 165.42981 | 30340 ft | 510 kts | 272° |
| 2026-04-26 11:54 | -38.13380 | 165.29464 | 30339 ft | 511 kts | 272° |
| 2026-04-26 11:54 | -38.12939 | 165.20465 | 30339 ft | 510 kts | 272° |
| 2026-04-26 11:55 | -38.12496 | 165.11513 | 30341 ft | 511 kts | 272° |
| 2026-04-26 11:55 | -38.12041 | 165.02505 | 30339 ft | 510 kts | 273° |
| 2026-04-26 11:56 | -38.11581 | 164.93499 | 30337 ft | 511 kts | 273° |
| 2026-04-26 11:56 | -38.11113 | 164.84500 | 30346 ft | 511 kts | 273° |
| 2026-04-26 11:57 | -38.10638 | 164.75496 | 30342 ft | 511 kts | 273° |
| 2026-04-26 11:57 | -38.10157 | 164.66497 | 30343 ft | 511 kts | 273° |
| 2026-04-26 11:58 | -38.09669 | 164.57504 | 30346 ft | 511 kts | 273° |
| 2026-04-26 11:58 | -38.09174 | 164.48503 | 30348 ft | 511 kts | 273° |
| 2026-04-26 11:59 | -38.08674 | 164.39557 | 30348 ft | 511 kts | 273° |
| 2026-04-26 11:59 | -38.08164 | 164.30546 | 30349 ft | 511 kts | 274° |
| 2026-04-26 12:00 | -38.07649 | 164.21538 | 30351 ft | 512 kts | 273° |
| 2026-04-26 12:00 | -38.07124 | 164.12525 | 30351 ft | 512 kts | 273° |
| 2026-04-26 12:01 | -38.06594 | 164.03521 | 30353 ft | 512 kts | 274° |
| 2026-04-26 12:01 | -38.06057 | 163.94521 | 30363 ft | 511 kts | 274° |
| 2026-04-26 12:02 | -38.05514 | 163.85517 | 30346 ft | 512 kts | 274° |
| 2026-04-26 12:02 | -38.04962 | 163.76505 | 30358 ft | 511 kts | 274° |
| 2026-04-26 12:03 | -38.04404 | 163.67508 | 30349 ft | 511 kts | 274° |
| 2026-04-26 12:03 | -38.03843 | 163.58566 | 30360 ft | 512 kts | 274° |
| 2026-04-26 12:04 | -38.03272 | 163.49563 | 30328 ft | 513 kts | 274° |
| 2026-04-26 12:04 | -38.02692 | 163.40545 | 30343 ft | 512 kts | 274° |
| 2026-04-26 12:05 | -38.02105 | 163.31534 | 30364 ft | 512 kts | 274° |
| 2026-04-26 12:05 | -38.01512 | 163.22525 | 30362 ft | 513 kts | 274° |
| 2026-04-26 12:06 | -38.00912 | 163.13500 | 30355 ft | 513 kts | 274° |
| 2026-04-26 12:06 | -38.00309 | 163.04553 | 30360 ft | 512 kts | 275° |
| 2026-04-26 12:07 | -37.99281 | 162.95715 | 30342 ft | 499 kts | 283° |
| 2026-04-26 12:07 | -37.97175 | 162.87173 | 30374 ft | 516 kts | 289° |
| 2026-04-26 12:08 | -37.94789 | 162.78572 | 30377 ft | 517 kts | 288° |
| 2026-04-26 12:08 | -37.92526 | 162.69939 | 30365 ft | 515 kts | 287° |
| 2026-04-26 12:09 | -37.90384 | 162.61287 | 30375 ft | 514 kts | 287° |
| 2026-04-26 12:09 | -37.88273 | 162.52650 | 30363 ft | 513 kts | 287° |
| 2026-04-26 12:10 | -37.86154 | 162.44081 | 30362 ft | 513 kts | 287° |
| 2026-04-26 12:10 | -37.83997 | 162.35469 | 30365 ft | 513 kts | 287° |
| 2026-04-26 12:11 | -37.81828 | 162.26870 | 30362 ft | 513 kts | 287° |
| 2026-04-26 12:11 | -37.79652 | 162.18270 | 30366 ft | 513 kts | 287° |
| 2026-04-26 12:12 | -37.77471 | 162.09665 | 30365 ft | 513 kts | 287° |
| 2026-04-26 12:12 | -37.75286 | 162.01071 | 30364 ft | 514 kts | 287° |
| 2026-04-26 12:13 | -37.73093 | 161.92480 | 30368 ft | 514 kts | 287° |
| 2026-04-26 12:13 | -37.70894 | 161.83891 | 30362 ft | 514 kts | 287° |
| 2026-04-26 12:14 | -37.68704 | 161.75368 | 30365 ft | 514 kts | 288° |
| 2026-04-26 12:14 | -37.66492 | 161.66787 | 30365 ft | 513 kts | 288° |
| 2026-04-26 12:15 | -37.64276 | 161.58223 | 30364 ft | 513 kts | 288° |
| 2026-04-26 12:15 | -37.62053 | 161.49658 | 30365 ft | 513 kts | 288° |
| 2026-04-26 12:16 | -37.59825 | 161.41104 | 30365 ft | 513 kts | 288° |
| 2026-04-26 12:16 | -37.57590 | 161.32553 | 30364 ft | 513 kts | 288° |
| 2026-04-26 12:17 | -37.55347 | 161.24000 | 30364 ft | 514 kts | 288° |
| 2026-04-26 12:17 | -37.53099 | 161.15453 | 30364 ft | 514 kts | 288° |
| 2026-04-26 12:18 | -37.50845 | 161.06915 | 30364 ft | 514 kts | 288° |
| 2026-04-26 12:18 | -37.48585 | 160.98384 | 30364 ft | 513 kts | 288° |
| 2026-04-26 12:19 | -37.46321 | 160.89865 | 30367 ft | 513 kts | 288° |
| 2026-04-26 12:19 | -37.44065 | 160.81402 | 30369 ft | 513 kts | 288° |
| 2026-04-26 12:20 | -37.41775 | 160.72839 | 30366 ft | 513 kts | 288° |
| 2026-04-26 12:20 | -37.39505 | 160.64382 | 30367 ft | 513 kts | 288° |
| 2026-04-26 12:21 | -37.37216 | 160.55880 | 30363 ft | 513 kts | 288° |
| 2026-04-26 12:21 | -37.34918 | 160.47373 | 30367 ft | 514 kts | 288° |
| 2026-04-26 12:22 | -37.32611 | 160.38862 | 30366 ft | 514 kts | 289° |
| 2026-04-26 12:22 | -37.30300 | 160.30362 | 30365 ft | 514 kts | 289° |
| 2026-04-26 12:23 | -37.27981 | 160.21862 | 30367 ft | 514 kts | 289° |
| 2026-04-26 12:23 | -37.25656 | 160.13365 | 30361 ft | 514 kts | 289° |
| 2026-04-26 12:24 | -37.23328 | 160.04884 | 30366 ft | 513 kts | 289° |
| 2026-04-26 12:24 | -37.21012 | 159.96478 | 30362 ft | 513 kts | 289° |
| 2026-04-26 12:25 | -37.17507 | 159.83803 | 30363 ft | 513 kts | 289° |
| 2026-04-26 12:25 | -37.15163 | 159.75353 | 30359 ft | 513 kts | 289° |
| 2026-04-26 12:26 | -37.12807 | 159.66893 | 30361 ft | 514 kts | 289° |
| 2026-04-26 12:26 | -37.10443 | 159.58436 | 30359 ft | 515 kts | 289° |
| 2026-04-26 12:27 | -37.08073 | 159.49979 | 30356 ft | 514 kts | 289° |
| 2026-04-26 12:27 | -37.05710 | 159.41574 | 30357 ft | 515 kts | 289° |
| 2026-04-26 12:28 | -37.03322 | 159.33108 | 30360 ft | 517 kts | 289° |
| 2026-04-26 12:28 | -37.00917 | 159.24609 | 30363 ft | 519 kts | 289° |
| 2026-04-26 12:29 | -36.98500 | 159.16094 | 30358 ft | 519 kts | 290° |
| 2026-04-26 12:30 | -36.94864 | 159.03330 | 30356 ft | 519 kts | 290° |
| 2026-04-26 12:30 | -36.92442 | 158.94866 | 30357 ft | 519 kts | 290° |
| 2026-04-26 12:31 | -36.88781 | 158.82118 | 30352 ft | 519 kts | 290° |
| 2026-04-26 12:31 | -36.86339 | 158.73645 | 30353 ft | 518 kts | 290° |
| 2026-04-26 12:32 | -36.83891 | 158.65179 | 30351 ft | 518 kts | 290° |
| 2026-04-26 12:33 | -36.80210 | 158.52502 | 30357 ft | 518 kts | 290° |
| 2026-04-26 12:33 | -36.77748 | 158.44056 | 30356 ft | 518 kts | 290° |
| 2026-04-26 12:34 | -36.75279 | 158.35613 | 30350 ft | 518 kts | 290° |
| 2026-04-26 12:34 | -36.72807 | 158.27179 | 30352 ft | 518 kts | 290° |
| 2026-04-26 12:35 | -36.70328 | 158.18749 | 30350 ft | 518 kts | 290° |
| 2026-04-26 12:35 | -36.67887 | 158.10470 | 30353 ft | 518 kts | 290° |
| 2026-04-26 12:36 | -36.65411 | 158.02104 | 30346 ft | 518 kts | 290° |
| 2026-04-26 12:36 | -36.63332 | 157.95100 | 30347 ft | 519 kts | 290° |
| 2026-04-26 12:37 | -36.60826 | 157.86677 | 30352 ft | 519 kts | 290° |
| 2026-04-26 12:37 | -36.57903 | 157.76885 | 30351 ft | 519 kts | 291° |
| 2026-04-26 12:38 | -36.55792 | 157.69831 | 30343 ft | 519 kts | 291° |
| 2026-04-26 12:38 | -36.52861 | 157.60071 | 30348 ft | 518 kts | 291° |
| 2026-04-26 12:39 | -36.50758 | 157.53087 | 30351 ft | 518 kts | 291° |
| 2026-04-26 12:39 | -36.48220 | 157.44683 | 30349 ft | 518 kts | 291° |
| 2026-04-26 12:40 | -36.45675 | 157.36285 | 30348 ft | 518 kts | 291° |
| 2026-04-26 12:40 | -36.43143 | 157.27952 | 30341 ft | 518 kts | 291° |
| 2026-04-26 12:41 | -36.40589 | 157.19568 | 30347 ft | 519 kts | 291° |
| 2026-04-26 12:41 | -36.38027 | 157.11185 | 30339 ft | 520 kts | 291° |
| 2026-04-26 12:42 | -36.35450 | 157.02774 | 30341 ft | 522 kts | 291° |
| 2026-04-26 12:42 | -36.32872 | 156.94389 | 30340 ft | 523 kts | 291° |
| 2026-04-26 12:43 | -36.30273 | 156.85961 | 30337 ft | 523 kts | 291° |
| 2026-04-26 12:43 | -36.27669 | 156.77543 | 30338 ft | 522 kts | 291° |
| 2026-04-26 12:44 | -36.25066 | 156.69148 | 30010 ft | 515 kts | 291° |
| 2026-04-26 12:44 | -36.23814 | 156.65119 | 29969 ft | 492 kts | 291° |
| 2026-04-26 12:44 | -36.22596 | 156.61206 | 29423 ft | 481 kts | 291° |
| 2026-04-26 12:44 | -36.21402 | 156.57377 | 28909 ft | 471 kts | 291° |
| 2026-04-26 12:45 | -36.20231 | 156.53627 | 28385 ft | 462 kts | 291° |
| 2026-04-26 12:45 | -36.19079 | 156.49942 | 27859 ft | 456 kts | 291° |
| 2026-04-26 12:45 | -36.17940 | 156.46302 | 27344 ft | 451 kts | 291° |
| 2026-04-26 12:45 | -36.16809 | 156.42689 | 26834 ft | 448 kts | 291° |
| 2026-04-26 12:46 | -36.15690 | 156.39123 | 26367 ft | 443 kts | 291° |
| 2026-04-26 12:46 | -36.14575 | 156.35572 | 25895 ft | 440 kts | 291° |
| 2026-04-26 12:46 | -36.13482 | 156.32094 | 25448 ft | 437 kts | 291° |
| 2026-04-26 12:46 | -36.12380 | 156.28591 | 24998 ft | 436 kts | 291° |
| 2026-04-26 12:47 | -36.11282 | 156.25107 | 24542 ft | 434 kts | 291° |
| 2026-04-26 12:47 | -36.10181 | 156.21618 | 24073 ft | 434 kts | 291° |
| 2026-04-26 12:47 | -36.09086 | 156.18150 | 23604 ft | 432 kts | 291° |
| 2026-04-26 12:47 | -36.07994 | 156.14695 | 23100 ft | 431 kts | 291° |
| 2026-04-26 12:48 | -36.06905 | 156.11256 | 22620 ft | 429 kts | 291° |
| 2026-04-26 12:48 | -36.05821 | 156.07837 | 22088 ft | 427 kts | 291° |
| 2026-04-26 12:48 | -36.04752 | 156.04468 | 21605 ft | 425 kts | 291° |
| 2026-04-26 12:48 | -36.03677 | 156.01084 | 21126 ft | 422 kts | 291° |
| 2026-04-26 12:49 | -36.02608 | 155.97725 | 20648 ft | 419 kts | 291° |
| 2026-04-26 12:49 | -36.01547 | 155.94393 | 20394 ft | 413 kts | 291° |
| 2026-04-26 12:49 | -36.00496 | 155.91098 | 20329 ft | 409 kts | 291° |
| 2026-04-26 12:49 | -35.99452 | 155.87831 | 20333 ft | 410 kts | 291° |
| 2026-04-26 12:50 | -35.98398 | 155.84530 | 20334 ft | 412 kts | 291° |
| 2026-04-26 12:50 | -35.97357 | 155.81277 | 20334 ft | 412 kts | 291° |
| 2026-04-26 12:50 | -35.96305 | 155.77990 | 20335 ft | 412 kts | 291° |
| 2026-04-26 12:50 | -35.95247 | 155.74690 | 20334 ft | 412 kts | 291° |
| 2026-04-26 12:51 | -35.94193 | 155.71406 | 20332 ft | 412 kts | 291° |
| 2026-04-26 12:51 | -35.93135 | 155.68114 | 20329 ft | 412 kts | 291° |
| 2026-04-26 12:51 | -35.92076 | 155.64822 | 20327 ft | 412 kts | 291° |
| 2026-04-26 12:51 | -35.91020 | 155.61543 | 20328 ft | 412 kts | 291° |
| 2026-04-26 12:52 | -35.89961 | 155.58257 | 20330 ft | 412 kts | 291° |
| 2026-04-26 12:52 | -35.88898 | 155.54965 | 20330 ft | 412 kts | 291° |
| 2026-04-26 12:52 | -35.87839 | 155.51689 | 20331 ft | 412 kts | 291° |
| 2026-04-26 12:52 | -35.86783 | 155.48424 | 20333 ft | 412 kts | 291° |
| 2026-04-26 12:53 | -35.85716 | 155.45131 | 20331 ft | 412 kts | 291° |
| 2026-04-26 12:53 | -35.84655 | 155.41859 | 20333 ft | 412 kts | 291° |
| 2026-04-26 12:53 | -35.83590 | 155.38578 | 20331 ft | 412 kts | 291° |
| 2026-04-26 12:53 | -35.82523 | 155.35293 | 20330 ft | 412 kts | 291° |
| 2026-04-26 12:54 | -35.81469 | 155.32053 | 20327 ft | 412 kts | 291° |
| 2026-04-26 12:54 | -35.80402 | 155.28773 | 20330 ft | 412 kts | 291° |
| 2026-04-26 12:54 | -35.79333 | 155.25492 | 20330 ft | 412 kts | 291° |
| 2026-04-26 12:54 | -35.78264 | 155.22217 | 20329 ft | 412 kts | 291° |
| 2026-04-26 12:55 | -35.77198 | 155.18955 | 20329 ft | 412 kts | 291° |
| 2026-04-26 12:55 | -35.76122 | 155.15668 | 20329 ft | 412 kts | 292° |
| 2026-04-26 12:55 | -35.75050 | 155.12397 | 20329 ft | 412 kts | 291° |
| 2026-04-26 12:55 | -35.73976 | 155.09121 | 20327 ft | 412 kts | 291° |
| 2026-04-26 12:56 | -35.72903 | 155.05848 | 20327 ft | 412 kts | 292° |
| 2026-04-26 12:56 | -35.71827 | 155.02575 | 20329 ft | 412 kts | 292° |
| 2026-04-26 12:56 | -35.70752 | 154.99302 | 20334 ft | 412 kts | 292° |
| 2026-04-26 12:56 | -35.69675 | 154.96030 | 20327 ft | 413 kts | 292° |
| 2026-04-26 12:57 | -35.68597 | 154.92759 | 20331 ft | 412 kts | 292° |
| 2026-04-26 12:57 | -35.67518 | 154.89487 | 20330 ft | 412 kts | 292° |
| 2026-04-26 12:57 | -35.66451 | 154.86258 | 20328 ft | 412 kts | 292° |
| 2026-04-26 12:58 | -35.64289 | 154.79721 | 20327 ft | 413 kts | 292° |
| 2026-04-26 12:58 | -35.63208 | 154.76458 | 20325 ft | 413 kts | 292° |
| 2026-04-26 12:58 | -35.62124 | 154.73192 | 20317 ft | 411 kts | 292° |
| 2026-04-26 12:58 | -35.60936 | 154.70032 | 20318 ft | 407 kts | 298° |
| 2026-04-26 12:59 | -35.59438 | 154.67054 | 20329 ft | 412 kts | 306° |
| 2026-04-26 12:59 | -35.57606 | 154.64316 | 20333 ft | 416 kts | 312° |
| 2026-04-26 12:59 | -35.55624 | 154.61685 | 20341 ft | 418 kts | 314° |
| 2026-04-26 12:59 | -35.53632 | 154.59076 | 20329 ft | 418 kts | 313° |
| 2026-04-26 13:00 | -35.51685 | 154.56459 | 20313 ft | 413 kts | 312° |
| 2026-04-26 13:00 | -35.49814 | 154.53851 | 20314 ft | 412 kts | 311° |
| 2026-04-26 13:00 | -35.47966 | 154.51149 | 20322 ft | 412 kts | 310° |
| 2026-04-26 13:00 | -35.46148 | 154.48426 | 20325 ft | 413 kts | 309° |
| 2026-04-26 13:01 | -35.44324 | 154.45693 | 20320 ft | 414 kts | 310° |
| 2026-04-26 13:01 | -35.42491 | 154.42977 | 20320 ft | 414 kts | 310° |
| 2026-04-26 13:01 | -35.40648 | 154.40285 | 20319 ft | 414 kts | 310° |
| 2026-04-26 13:01 | -35.38768 | 154.37571 | 20155 ft | 416 kts | 311° |
| 2026-04-26 13:02 | -35.36894 | 154.34889 | 19907 ft | 413 kts | 311° |
| 2026-04-26 13:02 | -35.35025 | 154.32229 | 19660 ft | 409 kts | 311° |
| 2026-04-26 13:02 | -35.33174 | 154.29601 | 19429 ft | 407 kts | 311° |
| 2026-04-26 13:02 | -35.31322 | 154.26978 | 19190 ft | 406 kts | 311° |
| 2026-04-26 13:03 | -35.29479 | 154.24369 | 18960 ft | 404 kts | 311° |
| 2026-04-26 13:03 | -35.27639 | 154.21765 | 18720 ft | 403 kts | 311° |
| 2026-04-26 13:03 | -35.25830 | 154.19207 | 18482 ft | 402 kts | 311° |
| 2026-04-26 13:03 | -35.23998 | 154.16618 | 18213 ft | 402 kts | 311° |
| 2026-04-26 13:04 | -35.22171 | 154.14037 | 17948 ft | 401 kts | 311° |
| 2026-04-26 13:04 | -35.20350 | 154.11465 | 17692 ft | 399 kts | 311° |
| 2026-04-26 13:04 | -35.18531 | 154.08899 | 17419 ft | 398 kts | 311° |
| 2026-04-26 13:04 | -35.16721 | 154.06346 | 17158 ft | 397 kts | 311° |
| 2026-04-26 13:05 | -35.14913 | 154.03797 | 16916 ft | 395 kts | 311° |
| 2026-04-26 13:05 | -35.13115 | 154.01264 | 16669 ft | 394 kts | 311° |
| 2026-04-26 13:05 | -35.11325 | 153.98744 | 16407 ft | 392 kts | 311° |
| 2026-04-26 13:05 | -35.09542 | 153.96236 | 16154 ft | 390 kts | 311° |
| 2026-04-26 13:06 | -35.07762 | 153.93735 | 15912 ft | 388 kts | 311° |
| 2026-04-26 13:06 | -35.05999 | 153.91260 | 15666 ft | 386 kts | 311° |
| 2026-04-26 13:06 | -35.04262 | 153.88823 | 15424 ft | 384 kts | 311° |
| 2026-04-26 13:06 | -35.02512 | 153.86369 | 15178 ft | 382 kts | 311° |
| 2026-04-26 13:07 | -35.00771 | 153.83930 | 14948 ft | 380 kts | 311° |
| 2026-04-26 13:07 | -34.99038 | 153.81504 | 14705 ft | 378 kts | 311° |
| 2026-04-26 13:07 | -34.97313 | 153.79090 | 14460 ft | 377 kts | 311° |
| 2026-04-26 13:07 | -34.95591 | 153.76681 | 14236 ft | 376 kts | 311° |
| 2026-04-26 13:08 | -34.93878 | 153.74289 | 14000 ft | 374 kts | 311° |
| 2026-04-26 13:08 | -34.92167 | 153.71899 | 13729 ft | 373 kts | 311° |
| 2026-04-26 13:08 | -34.90465 | 153.69522 | 13467 ft | 371 kts | 311° |
| 2026-04-26 13:08 | -34.88776 | 153.67166 | 13365 ft | 367 kts | 311° |
| 2026-04-26 13:09 | -34.87095 | 153.64824 | 13316 ft | 367 kts | 311° |
| 2026-04-26 13:09 | -34.85410 | 153.62477 | 13307 ft | 369 kts | 311° |
| 2026-04-26 13:09 | -34.83717 | 153.60121 | 13302 ft | 369 kts | 311° |
| 2026-04-26 13:09 | -34.82026 | 153.57768 | 13297 ft | 370 kts | 311° |
| 2026-04-26 13:10 | -34.80329 | 153.55410 | 13294 ft | 370 kts | 311° |
| 2026-04-26 13:10 | -34.78632 | 153.53053 | 13295 ft | 370 kts | 311° |
| 2026-04-26 13:10 | -34.76935 | 153.50697 | 13296 ft | 370 kts | 311° |
| 2026-04-26 13:10 | -34.75242 | 153.48349 | 13296 ft | 370 kts | 311° |
| 2026-04-26 13:11 | -34.73545 | 153.45996 | 13294 ft | 370 kts | 311° |
| 2026-04-26 13:11 | -34.71848 | 153.43646 | 13293 ft | 370 kts | 311° |
| 2026-04-26 13:11 | -34.70149 | 153.41293 | 13293 ft | 369 kts | 311° |
| 2026-04-26 13:11 | -34.68455 | 153.38951 | 13294 ft | 369 kts | 311° |
| 2026-04-26 13:12 | -34.66782 | 153.36638 | 13291 ft | 369 kts | 311° |
| 2026-04-26 13:12 | -34.65088 | 153.34297 | 13289 ft | 369 kts | 311° |
| 2026-04-26 13:12 | -34.63394 | 153.31959 | 13288 ft | 369 kts | 311° |
| 2026-04-26 13:12 | -34.61701 | 153.29622 | 13290 ft | 369 kts | 311° |
| 2026-04-26 13:13 | -34.60005 | 153.27285 | 13293 ft | 369 kts | 311° |
| 2026-04-26 13:13 | -34.58304 | 153.24941 | 13293 ft | 370 kts | 311° |
| 2026-04-26 13:13 | -34.56599 | 153.22594 | 13293 ft | 370 kts | 311° |
| 2026-04-26 13:13 | -34.54898 | 153.20254 | 13289 ft | 370 kts | 311° |
| 2026-04-26 13:14 | -34.53193 | 153.17911 | 13290 ft | 371 kts | 311° |
| 2026-04-26 13:14 | -34.51488 | 153.15568 | 13291 ft | 371 kts | 311° |
| 2026-04-26 13:14 | -34.49783 | 153.13226 | 13292 ft | 371 kts | 311° |
| 2026-04-26 13:14 | -34.48074 | 153.10881 | 13290 ft | 371 kts | 311° |
| 2026-04-26 13:15 | -34.46363 | 153.08534 | 13294 ft | 370 kts | 311° |
| 2026-04-26 13:15 | -34.44657 | 153.06196 | 13290 ft | 370 kts | 311° |
| 2026-04-26 13:15 | -34.42971 | 153.03887 | 13289 ft | 370 kts | 311° |
| 2026-04-26 13:15 | -34.41820 | 153.02312 | 13291 ft | 369 kts | 311° |
| 2026-04-26 13:16 | -34.39564 | 152.99227 | 13288 ft | 369 kts | 311° |
| 2026-04-26 13:16 | -34.37858 | 152.96896 | 13287 ft | 369 kts | 311° |
| 2026-04-26 13:16 | -34.36162 | 152.94579 | 13288 ft | 369 kts | 311° |
| 2026-04-26 13:16 | -34.34456 | 152.92251 | 13289 ft | 368 kts | 311° |
| 2026-04-26 13:17 | -34.31054 | 152.87611 | 13285 ft | 368 kts | 311° |
| 2026-04-26 13:17 | -34.29350 | 152.85290 | 13282 ft | 369 kts | 311° |
| 2026-04-26 13:18 | -34.25958 | 152.80672 | 13288 ft | 369 kts | 311° |
| 2026-04-26 13:18 | -34.24250 | 152.78351 | 13288 ft | 370 kts | 312° |
| 2026-04-26 13:18 | -34.20828 | 152.73702 | 13278 ft | 370 kts | 312° |
| 2026-04-26 13:19 | -34.19115 | 152.71378 | 13281 ft | 370 kts | 312° |
| 2026-04-26 13:19 | -34.17403 | 152.69057 | 13280 ft | 370 kts | 312° |
| 2026-04-26 13:19 | -34.15689 | 152.66734 | 13281 ft | 370 kts | 312° |
| 2026-04-26 13:19 | -34.13979 | 152.64418 | 13273 ft | 370 kts | 312° |
| 2026-04-26 13:20 | -34.12268 | 152.62101 | 13267 ft | 370 kts | 312° |
| 2026-04-26 13:20 | -34.10545 | 152.59771 | 12966 ft | 371 kts | 311° |
| 2026-04-26 13:20 | -34.09045 | 152.57283 | 12553 ft | 366 kts | 296° |
| 2026-04-26 13:20 | -34.08397 | 152.54329 | 12169 ft | 367 kts | 272° |
| 2026-04-26 13:21 | -34.08535 | 152.51299 | 11814 ft | 356 kts | 263° |
| 2026-04-26 13:21 | -34.08742 | 152.49352 | 11577 ft | 353 kts | 262° |
| 2026-04-26 13:21 | -34.09174 | 152.45395 | 11096 ft | 358 kts | 263° |
| 2026-04-26 13:21 | -34.09406 | 152.42405 | 10744 ft | 358 kts | 265° |
| 2026-04-26 13:22 | -34.09585 | 152.39415 | 10387 ft | 357 kts | 266° |
| 2026-04-26 13:22 | -34.09757 | 152.36398 | 10040 ft | 360 kts | 266° |
| 2026-04-26 13:22 | -34.09933 | 152.33400 | 9650 ft | 356 kts | 265° |
| 2026-04-26 13:22 | -34.10114 | 152.30488 | 9265 ft | 349 kts | 265° |
| 2026-04-26 13:23 | -34.10303 | 152.27593 | 8877 ft | 343 kts | 265° |
| 2026-04-26 13:23 | -34.10495 | 152.24739 | 8493 ft | 340 kts | 265° |
| 2026-04-26 13:23 | -34.10690 | 152.21918 | 8129 ft | 337 kts | 264° |
| 2026-04-26 13:23 | -34.10886 | 152.19099 | 7749 ft | 335 kts | 264° |
| 2026-04-26 13:24 | -34.11081 | 152.16314 | 7391 ft | 332 kts | 264° |
| 2026-04-26 13:24 | -34.11275 | 152.13538 | 7034 ft | 331 kts | 264° |
| 2026-04-26 13:24 | -34.11405 | 152.11673 | 6793 ft | 330 kts | 264° |
| 2026-04-26 13:24 | -34.11660 | 152.08034 | 6328 ft | 328 kts | 264° |
| 2026-04-26 13:25 | -34.11787 | 152.06218 | 6274 ft | 328 kts | 264° |
| 2026-04-26 13:25 | -34.11978 | 152.03463 | 6282 ft | 331 kts | 264° |
| 2026-04-26 13:25 | -34.12171 | 152.00675 | 6279 ft | 333 kts | 264° |
| 2026-04-26 13:25 | -34.12362 | 151.97892 | 6274 ft | 333 kts | 264° |
| 2026-04-26 13:26 | -34.12553 | 151.95111 | 6266 ft | 332 kts | 265° |
| 2026-04-26 13:26 | -34.12742 | 151.92323 | 6039 ft | 335 kts | 265° |
| 2026-04-26 13:26 | -34.12933 | 151.89519 | 5658 ft | 334 kts | 265° |
| 2026-04-26 13:26 | -34.13123 | 151.86735 | 5284 ft | 330 kts | 265° |
| 2026-04-26 13:27 | -34.13309 | 151.83987 | 4905 ft | 326 kts | 266° |
| 2026-04-26 13:27 | -34.13492 | 151.81276 | 4782 ft | 324 kts | 266° |
| 2026-04-26 13:27 | -34.13674 | 151.78554 | 4605 ft | 324 kts | 266° |
| 2026-04-26 13:27 | -34.13854 | 151.75844 | 4213 ft | 323 kts | 267° |
| 2026-04-26 13:28 | -34.14033 | 151.73174 | 3847 ft | 322 kts | 267° |
| 2026-04-26 13:28 | -34.14211 | 151.70484 | 3474 ft | 321 kts | 267° |
| 2026-04-26 13:28 | -34.14387 | 151.67797 | 3270 ft | 319 kts | 267° |
| 2026-04-26 13:28 | -34.14561 | 151.65132 | 3282 ft | 319 kts | 267° |
| 2026-04-26 13:29 | -34.14735 | 151.62456 | 3285 ft | 320 kts | 267° |
| 2026-04-26 13:29 | -34.14911 | 151.59785 | 3271 ft | 318 kts | 268° |
| 2026-04-26 13:29 | -34.15083 | 151.57118 | 3275 ft | 318 kts | 267° |
| 2026-04-26 13:29 | -34.15255 | 151.54454 | 3272 ft | 318 kts | 267° |
| 2026-04-26 13:30 | -34.15428 | 151.51790 | 3265 ft | 318 kts | 267° |
| 2026-04-26 13:30 | -34.15600 | 151.49130 | 3273 ft | 318 kts | 267° |
| 2026-04-26 13:30 | -34.15771 | 151.46472 | 3279 ft | 318 kts | 268° |
| 2026-04-26 13:30 | -34.15944 | 151.43798 | 3278 ft | 318 kts | 268° |
| 2026-04-26 13:31 | -34.16113 | 151.41130 | 3291 ft | 319 kts | 267° |
| 2026-04-26 13:31 | -34.16280 | 151.38495 | 3283 ft | 319 kts | 267° |
| 2026-04-26 13:31 | -34.16443 | 151.35939 | 3279 ft | 319 kts | 267° |
| 2026-04-26 13:31 | -34.16613 | 151.33274 | 3273 ft | 318 kts | 268° |
| 2026-04-26 13:32 | -34.16783 | 151.30614 | 3286 ft | 316 kts | 268° |
| 2026-04-26 13:32 | -34.16949 | 151.27973 | 3285 ft | 315 kts | 267° |
| 2026-04-26 13:32 | -34.16856 | 151.25344 | 3275 ft | 316 kts | 286° |
| 2026-04-26 13:32 | -34.15856 | 151.22995 | 3285 ft | 312 kts | 312° |
| 2026-04-26 13:33 | -34.14193 | 151.21482 | 3282 ft | 292 kts | 338° |
| 2026-04-26 13:33 | -34.12263 | 151.21064 | 3164 ft | 276 kts | 2° |
| 2026-04-26 13:33 | -34.10440 | 151.21281 | 2778 ft | 247 kts | 5° |
| 2026-04-26 13:33 | -34.08834 | 151.21237 | 2523 ft | 223 kts | 355° |
| 2026-04-26 13:34 | -34.07369 | 151.20980 | 2229 ft | 202 kts | 350° |
| 2026-04-26 13:34 | -34.06060 | 151.20642 | 1961 ft | 182 kts | 348° |
| 2026-04-26 13:34 | -34.04885 | 151.20325 | 1740 ft | 168 kts | 349° |
| 2026-04-26 13:34 | -34.04126 | 151.20124 | 1588 ft | 168 kts | 349° |
| 2026-04-26 13:35 | -34.02598 | 151.19719 | 1293 ft | 169 kts | 348° |
| 2026-04-26 13:35 | -34.01626 | 151.19462 | 1099 ft | 169 kts | 348° |
| 2026-04-26 13:35 | -34.00497 | 151.19163 | 865 ft | 166 kts | 348° |
| 2026-04-26 13:35 | -33.99569 | 151.18917 | 690 ft | 165 kts | 347° |
| 2026-04-26 13:36 | -33.98435 | 151.18617 | 463 ft | 168 kts | 347° |
| 2026-04-26 13:36 | -33.97295 | 151.18315 | 252 ft | 166 kts | 346° |
| 2026-04-26 13:36 | -33.96209 | 151.18007 | 63 ft | 169 kts | 347° |
| 2026-04-26 13:36 | -33.95284 | 151.17768 | 28 ft | 90 kts | 348° |
| 2026-04-26 13:37 | -33.94933 | 151.17679 | 27 ft | 42 kts | 346° |
| 2026-04-26 13:37 | -33.94669 | 151.17608 | 29 ft | 38 kts | 345° |
| 2026-04-26 13:37 | -33.94444 | 151.17483 | 29 ft | 34 kts | 327° |
| 2026-04-26 13:37 | -33.94396 | 151.17435 | 30 ft | 0 kts | 317° |
| 2026-04-26 13:38 | -33.94392 | 151.17430 | 30 ft | 10 kts | 317° |
| 2026-04-26 13:38 | -33.94297 | 151.17327 | 29 ft | 21 kts | 326° |
| 2026-04-26 13:38 | -33.94157 | 151.17272 | 26 ft | 22 kts | 346° |
| 2026-04-26 13:39 | -33.94015 | 151.17220 | 28 ft | 22 kts | 317° |
| 2026-04-26 13:39 | -33.93918 | 151.17093 | 28 ft | 22 kts | 343° |
| 2026-04-26 13:39 | -33.93862 | 151.17073 | 29 ft | 5 kts | 327° |
| 2026-04-26 13:39 | -33.93850 | 151.17035 | 28 ft | 5 kts | 268° |
| 2026-04-26 13:40 | -33.93858 | 151.16987 | 29 ft | 4 kts | 257° |
| 2026-04-26 13:40 | -33.93858 | 151.16986 | 29 ft | 0 kts | 257° |